Time;durP1;ratioP1;P1;durP2;ratioP2;P2;SDS_P1;SDS_P2;PMS_P1;PMS_P2;Temp;Humidity;BMP_temperature;BMP_pressure;BME280_temperature;BME280_humidity;BME280_pressure;Samples;Min_cycle;Max_cycle;Signal;HPM_P1;HPM_P2
2023/08/19 00:00:52;;;;;;;8.82;5.70;;;;;;;24.42;58.79;99857.03;9394672;26;38736;-82
2023/08/19 00:05:09;;;;;;;13.25;6.18;;;;;;;24.43;58.52;99852.28;9394537;26;37928;-81
2023/08/19 00:09:27;;;;;;;9.90;6.25;;;;;;;24.47;58.47;99848.37;9394755;26;39513;-81
2023/08/19 00:13:43;;;;;;;14.32;7.90;;;;;;;24.38;58.84;99845.00;9394879;26;39723;-81
2023/08/19 00:18:01;;;;;;;12.48;8.02;;;;;;;23.96;60.71;99854.81;9394326;26;38880;-82
2023/08/19 00:22:17;;;;;;;12.13;7.50;;;;;;;24.23;60.22;99857.78;9394670;26;38041;-81
2023/08/19 00:26:34;;;;;;;12.20;7.43;;;;;;;24.07;61.61;99845.91;9394586;26;40170;-81
2023/08/19 00:30:50;;;;;;;11.30;6.85;;;;;;;23.99;61.71;99854.09;9394347;26;41046;-81
2023/08/19 00:35:07;;;;;;;13.25;7.50;;;;;;;24.09;61.17;99854.69;9394508;26;38789;-81
2023/08/19 00:39:23;;;;;;;9.77;6.85;;;;;;;24.10;60.92;99850.75;9394780;26;37692;-81
2023/08/19 00:43:39;;;;;;;14.75;7.03;;;;;;;24.07;60.95;99854.25;9394607;26;39866;-81
2023/08/19 00:47:55;;;;;;;11.95;7.22;;;;;;;24.16;60.50;99860.41;9394371;26;39665;-81
2023/08/19 00:52:12;;;;;;;12.48;7.00;;;;;;;24.08;60.44;99858.66;9394362;26;38753;-81
2023/08/19 00:56:28;;;;;;;14.45;6.78;;;;;;;24.10;60.48;99861.88;9394479;26;38251;-81
2023/08/19 01:00:45;;;;;;;9.75;6.85;;;;;;;24.09;60.47;99863.84;9394336;26;40107;-82
2023/08/19 01:05:01;;;;;;;9.13;6.43;;;;;;;24.09;60.62;99855.50;9392752;26;39586;-82
2023/08/19 01:09:38;;;;;;;9.80;5.87;;;;;;;24.22;60.35;99853.41;9392820;26;37561;-81
2023/08/19 01:14:28;;;;;;;9.15;5.97;;;;;;;24.14;60.59;99859.97;9393906;26;37292;-81
2023/08/19 01:18:45;;;;;;;13.38;6.62;;;;;;;24.00;60.92;99866.81;9374063;26;39347;-81
2023/08/19 01:23:13;;;;;;;9.75;6.03;;;;;;;24.18;60.25;99874.78;9392174;26;39538;-81
2023/08/19 01:27:29;;;;;;;11.52;6.18;;;;;;;24.13;60.28;99863.94;9392823;26;38898;-81
2023/08/19 01:31:46;;;;;;;11.50;6.18;;;;;;;23.98;60.70;99855.25;9393997;26;37258;-81
2023/08/19 01:36:26;;;;;;;8.88;5.72;;;;;;;24.04;60.57;99871.66;9394051;26;39341;-82
2023/08/19 01:40:43;;;;;;;12.10;6.30;;;;;;;23.93;60.85;99869.44;9392696;26;39999;-81
2023/08/19 01:45:00;;;;;;;10.35;5.97;;;;;;;23.94;60.94;99871.06;9393704;26;37793;-81
2023/08/19 01:49:16;;;;;;;10.63;6.68;;;;;;;23.81;61.51;99877.88;9393849;26;37208;-81
2023/08/19 01:53:32;;;;;;;8.45;5.62;;;;;;;23.98;60.96;99871.94;9393816;26;39409;-81
2023/08/19 01:57:49;;;;;;;8.43;5.55;;;;;;;23.95;61.14;99875.44;9393413;26;40170;-81
2023/08/19 02:02:05;;;;;;;8.68;5.75;;;;;;;24.12;60.48;99873.47;9393488;26;38861;-81
2023/08/19 02:06:21;;;;;;;15.10;5.35;;;;;;;24.11;60.30;99874.62;9393375;26;36850;-81
2023/08/19 02:10:37;;;;;;;7.43;5.22;;;;;;;23.99;60.62;99867.19;9393452;26;39813;-80
2023/08/19 02:14:53;;;;;;;8.27;5.40;;;;;;;23.96;60.56;99874.28;9393315;26;40861;-81
2023/08/19 02:19:10;;;;;;;7.78;4.82;;;;;;;23.96;60.62;99877.06;9393013;26;38157;-81
2023/08/19 02:23:26;;;;;;;7.62;4.93;;;;;;;23.93;60.70;99886.13;9393388;26;37032;-81
2023/08/19 02:27:43;;;;;;;7.28;5.15;;;;;;;23.77;61.39;99879.75;9393843;26;39549;-81
2023/08/19 02:32:00;;;;;;;6.93;4.60;;;;;;;23.90;60.82;99881.28;9395046;26;40814;-81
2023/08/19 02:36:16;;;;;;;7.32;4.65;;;;;;;23.98;59.95;99877.50;9395188;26;38870;-81
2023/08/19 02:40:32;;;;;;;7.85;4.82;;;;;;;23.98;59.62;99874.72;9395027;26;37824;-82
2023/08/19 02:44:48;;;;;;;8.32;4.97;;;;;;;23.95;59.66;99867.09;9395326;26;39316;-81
2023/08/19 02:49:05;;;;;;;11.50;5.85;;;;;;;24.00;59.60;99858.47;9395149;26;40898;-81
2023/08/19 02:53:21;;;;;;;11.40;5.82;;;;;;;24.06;59.63;99859.03;9395010;26;38479;-80
2023/08/19 02:57:37;;;;;;;8.98;5.93;;;;;;;24.01;59.80;99859.28;9394968;26;37695;-79
2023/08/19 03:01:53;;;;;;;9.05;6.47;;;;;;;24.05;59.76;99851.03;9395117;26;39902;-80
2023/08/19 03:06:10;;;;;;;10.00;6.28;;;;;;;23.71;61.26;99861.69;9394809;26;41004;-80
2023/08/19 03:10:26;;;;;;;10.25;6.97;;;;;;;23.70;61.25;99858.09;9394971;26;37906;-81
2023/08/19 03:14:42;;;;;;;12.35;7.53;;;;;;;23.79;60.73;99853.16;9394680;26;37104;-81
2023/08/19 03:18:59;;;;;;;10.52;6.90;;;;;;;23.67;61.04;99849.66;9395110;26;40132;-81
2023/08/19 03:23:15;;;;;;;10.77;6.65;;;;;;;23.87;60.48;99842.22;9394681;26;40645;-81
2023/08/19 03:27:31;;;;;;;11.30;6.82;;;;;;;23.84;60.34;99843.78;9395335;26;36322;-81
2023/08/19 03:31:48;;;;;;;10.32;6.82;;;;;;;23.71;60.82;99851.34;9394947;26;37212;-81
2023/08/19 03:36:05;;;;;;;8.82;6.20;;;;;;;23.69;60.94;99853.69;9395481;26;37480;-81
2023/08/19 03:40:21;;;;;;;12.65;5.05;;;;;;;23.46;61.40;99845.16;9394793;26;41039;-81
2023/08/19 03:44:37;;;;;;;11.88;5.00;;;;;;;23.44;60.97;99853.06;9394796;26;37859;-81
2023/08/19 03:48:53;;;;;;;6.85;4.55;;;;;;;23.44;59.85;99848.31;9394872;26;37069;-81
2023/08/19 03:53:10;;;;;;;6.07;3.90;;;;;;;23.35;60.29;99855.19;9394986;26;40090;-81
2023/08/19 03:57:26;;;;;;;8.27;4.22;;;;;;;23.62;59.17;99845.97;9393225;26;40773;-81
2023/08/19 04:01:42;;;;;;;8.18;5.15;;;;;;;23.43;59.83;99857.81;9394725;26;38056;-81
2023/08/19 04:05:59;;;;;;;8.77;4.85;;;;;;;23.41;59.97;99854.56;9394478;26;38237;-80
2023/08/19 04:10:16;;;;;;;9.32;4.90;;;;;;;23.24;60.35;99861.28;9394733;26;40042;-80
2023/08/19 04:14:33;;;;;;;14.10;4.82;;;;;;;23.37;59.91;99869.53;9394418;26;40013;-81
2023/08/19 04:18:49;;;;;;;7.00;4.95;;;;;;;23.56;59.08;99868.84;9394331;26;37965;-81
2023/08/19 04:23:06;;;;;;;6.57;4.35;;;;;;;23.44;59.70;99870.56;9394750;26;36795;-81
2023/08/19 04:27:23;;;;;;;8.57;4.43;;;;;;;23.41;60.40;99873.25;9394863;26;40086;-81
2023/08/19 04:31:40;;;;;;;8.48;4.45;;;;;;;23.66;59.58;99881.44;9394545;26;40793;-80
2023/08/19 04:35:56;;;;;;;9.45;5.05;;;;;;;23.74;59.81;99878.47;9394742;26;38835;-81
2023/08/19 04:40:13;;;;;;;8.25;4.68;;;;;;;23.78;59.88;99884.97;9394341;26;37025;-81
2023/08/19 04:44:30;;;;;;;8.93;4.53;;;;;;;23.94;60.19;99884.16;9394578;26;39025;-81
2023/08/19 04:48:46;;;;;;;6.40;4.90;;;;;;;23.77;60.98;99886.13;9394418;26;40732;-81
2023/08/19 04:53:03;;;;;;;9.30;5.55;;;;;;;23.94;60.43;99898.91;9393716;26;37938;-81
2023/08/19 04:57:19;;;;;;;9.93;4.85;;;;;;;24.05;60.23;99892.78;9394255;26;36844;-81
2023/08/19 05:01:35;;;;;;;8.10;4.82;;;;;;;24.06;61.35;99894.37;9394256;26;39182;-80
2023/08/19 05:05:52;;;;;;;7.15;4.55;;;;;;;24.04;61.60;99908.66;9393950;26;40056;-79
2023/08/19 05:10:09;;;;;;;8.35;5.22;;;;;;;24.01;61.11;99903.84;9394171;26;38040;-80
2023/08/19 05:14:25;;;;;;;11.15;5.25;;;;;;;24.11;60.67;99908.87;9394248;26;37265;-81
2023/08/19 05:18:41;;;;;;;13.85;5.62;;;;;;;24.22;60.47;99902.75;9394055;26;39408;-81
2023/08/19 05:22:59;;;;;;;15.23;5.35;;;;;;;24.28;61.18;99907.66;9394275;26;40845;-80
2023/08/19 05:27:15;;;;;;;8.20;5.05;;;;;;;24.36;61.12;99912.25;9393829;26;38752;-80
2023/08/19 05:31:31;;;;;;;9.93;5.72;;;;;;;24.62;60.22;99922.00;9393956;26;36884;-71
2023/08/19 05:35:48;;;;;;;9.30;5.15;;;;;;;24.81;60.20;99924.03;9394002;26;39535;-71
2023/08/19 05:40:05;;;;;;;9.48;5.15;;;;;;;24.93;59.44;99921.09;9393617;26;40820;-71
2023/08/19 05:44:21;;;;;;;9.52;5.40;;;;;;;25.23;58.29;99922.50;9393794;26;37614;-71
2023/08/19 05:48:37;;;;;;;8.48;5.30;;;;;;;25.05;58.94;99922.13;9393604;26;36939;-72
2023/08/19 05:52:54;;;;;;;10.40;5.22;;;;;;;24.70;59.08;99928.56;9393414;26;39504;-71
2023/08/19 05:57:10;;;;;;;9.40;5.28;;;;;;;24.96;57.92;99936.31;9393716;26;40146;-71
2023/08/19 06:01:26;;;;;;;10.57;5.30;;;;;;;24.97;57.94;99949.06;9393806;26;38701;-71
2023/08/19 06:05:42;;;;;;;9.00;5.03;;;;;;;25.14;57.10;99947.81;9394840;26;37970;-70
2023/08/19 06:09:59;;;;;;;9.85;5.10;;;;;;;25.16;57.49;99951.03;9394649;26;39440;-72
2023/08/19 06:14:15;;;;;;;11.23;5.12;;;;;;;25.39;56.73;99955.91;9394998;26;39706;-71
2023/08/19 06:18:32;;;;;;;10.50;5.30;;;;;;;25.12;56.73;99964.91;9393820;26;38165;-71
2023/08/19 06:22:48;;;;;;;7.43;4.72;;;;;;;25.62;55.26;99969.94;9395361;26;37975;-71
2023/08/19 06:27:05;;;;;;;7.00;4.87;;;;;;;26.05;54.67;99970.75;9395809;26;38612;-70
2023/08/19 06:31:21;;;;;;;7.72;5.32;;;;;;;26.19;54.42;99970.19;9395388;26;41170;-71
2023/08/19 06:35:38;;;;;;;7.57;5.72;;;;;;;26.30;53.97;99979.56;9395131;26;38025;-72
2023/08/19 06:39:57;;;;;;;7.87;5.35;;;;;;;26.36;53.53;99982.84;9393662;26;37184;-72
2023/08/19 06:44:14;;;;;;;8.18;4.90;;;;;;;26.20;53.32;99992.16;9393897;26;39792;-73
2023/08/19 06:48:31;;;;;;;6.62;4.37;;;;;;;26.37;52.96;99990.03;9393610;26;40705;-72
2023/08/19 06:52:47;;;;;;;5.95;4.07;;;;;;;26.64;51.71;100001.28;9395018;26;37785;-70
2023/08/19 06:57:09;;;;;;;10.52;4.70;;;;;;;26.52;51.29;100013.44;9394916;26;37982;-75
2023/08/19 07:01:29;;;;;;;8.47;4.90;;;;;;;26.21;51.26;100021.69;9395092;26;39404;-73
2023/08/19 07:05:47;;;;;;;9.15;4.95;;;;;;;25.78;53.69;100032.06;9393453;26;41194;-72
2023/08/19 07:10:05;;;;;;;12.68;5.10;;;;;;;25.96;53.96;100042.81;9393068;26;38831;-72
2023/08/19 07:14:22;;;;;;;8.05;4.80;;;;;;;26.05;54.69;100051.75;9394309;26;37152;-73
2023/08/19 07:18:41;;;;;;;13.60;5.20;;;;;;;25.82;55.90;100066.44;9394720;26;40157;-70
2023/08/19 07:22:59;;;;;;;7.37;4.97;;;;;;;25.98;55.68;100097.09;9394949;26;39959;-74
2023/08/19 07:27:16;;;;;;;9.40;6.25;;;;;;;25.59;56.74;100115.81;9393247;26;37663;-73
2023/08/19 07:31:33;;;;;;;10.82;7.65;;;;;;;25.48;56.59;100110.00;9393455;26;37333;-73
2023/08/19 07:35:49;;;;;;;11.95;7.45;;;;;;;25.08;57.77;100139.75;9394745;26;39075;-83
2023/08/19 07:40:07;;;;;;;9.30;5.47;;;;;;;25.12;57.82;100151.81;9394574;26;40709;-82
2023/08/19 07:44:24;;;;;;;10.35;5.35;;;;;;;25.11;55.68;100160.53;9394721;26;38034;-82
2023/08/19 07:48:40;;;;;;;9.02;4.50;;;;;;;24.71;55.34;100159.53;9394848;26;36889;-83
2023/08/19 07:52:56;;;;;;;11.27;4.32;;;;;;;24.43;54.29;100164.34;9394713;26;39376;-84
2023/08/19 07:57:13;;;;;;;4.65;3.55;;;;;;;24.63;53.08;100152.19;9394113;26;40901;-84
2023/08/19 08:01:29;;;;;;;3.95;3.22;;;;;;;24.78;53.70;100158.13;9392817;26;38014;-83
2023/08/19 08:05:45;;;;;;;4.85;3.40;;;;;;;24.78;52.86;100163.69;9394182;26;36819;-83
2023/08/19 08:10:03;;;;;;;7.62;3.22;;;;;;;24.68;53.28;100151.91;9394406;26;39563;-82
2023/08/19 08:14:20;;;;;;;4.87;3.20;;;;;;;24.91;52.72;100154.88;9393981;26;41559;-84
2023/08/19 08:18:36;;;;;;;4.70;3.50;;;;;;;24.88;51.74;100141.66;9394274;26;38685;-82
2023/08/19 08:22:53;;;;;;;8.27;3.72;;;;;;;25.08;51.28;100145.34;9393855;26;36795;-80
2023/08/19 08:27:09;;;;;;;6.97;3.40;;;;;;;25.48;53.05;100149.06;9393416;26;40317;-81
2023/08/19 08:31:26;;;;;;;4.03;3.00;;;;;;;25.54;54.85;100155.19;9394581;26;40820;-81
2023/08/19 08:35:42;;;;;;;4.75;3.10;;;;;;;25.64;53.92;100151.81;9394015;26;37926;-82
2023/08/19 08:39:58;;;;;;;6.18;3.78;;;;;;;25.89;52.81;100143.16;9394065;26;37946;-84
2023/08/19 08:44:16;;;;;;;4.70;3.50;;;;;;;25.86;55.43;100139.94;9394411;26;39387;-85
2023/08/19 08:48:36;;;;;;;4.75;3.37;;;;;;;26.21;55.96;100129.88;9394346;26;41270;-84
2023/08/19 08:52:59;;;;;;;4.97;3.60;;;;;;;25.96;56.66;100112.63;9394317;26;37973;-80
2023/08/19 08:57:18;;;;;;;8.23;3.92;;;;;;;26.07;56.82;100102.47;9394217;26;37061;-81
2023/08/19 09:01:38;;;;;;;5.35;3.37;;;;;;;26.31;55.97;100108.91;9394291;26;39353;-82
2023/08/19 09:06:05;;;;;;;6.93;3.90;;;;;;;26.45;55.51;100097.97;9394136;26;39970;-82
2023/08/19 09:10:27;;;;;;;5.50;3.58;;;;;;;25.96;55.97;100098.66;9394122;26;36556;-70
2023/08/19 09:14:45;;;;;;;5.65;4.00;;;;;;;26.64;54.27;100097.13;9393198;26;36722;-74
2023/08/19 09:19:03;;;;;;;7.15;4.10;;;;;;;26.98;52.83;100075.72;9392523;26;40652;-74
2023/08/19 09:23:21;;;;;;;5.43;3.75;;;;;;;27.31;52.63;100063.00;9393898;26;40101;-71
2023/08/19 09:27:39;;;;;;;7.62;4.20;;;;;;;27.52;51.53;100058.88;9393983;26;38536;-72
2023/08/19 09:31:58;;;;;;;9.10;4.95;;;;;;;27.55;50.84;100063.72;9393884;26;37874;-84
2023/08/19 09:36:14;;;;;;;6.40;4.03;;;;;;;27.57;51.33;100058.56;9394311;26;39465;-82
2023/08/19 09:40:31;;;;;;;6.57;3.90;;;;;;;27.74;50.86;100071.16;9395348;26;40840;-81
2023/08/19 09:44:47;;;;;;;8.20;4.72;;;;;;;27.77;49.37;100080.78;9395516;26;37979;-81
2023/08/19 09:49:03;;;;;;;6.80;3.97;;;;;;;27.51;49.15;100074.06;9395059;26;37722;-81
2023/08/19 09:53:20;;;;;;;6.03;3.72;;;;;;;27.59;50.55;100072.97;9395502;26;40166;-84
2023/08/19 09:57:37;;;;;;;5.22;3.95;;;;;;;27.43;52.18;100066.78;9395223;26;39865;-82
2023/08/19 10:01:56;;;;;;;5.28;3.87;;;;;;;27.47;51.32;100062.81;9394923;26;38865;-76
2023/08/19 10:06:14;;;;;;;6.32;4.07;;;;;;;27.25;50.79;100078.50;9395141;26;36741;-77
2023/08/19 10:10:31;;;;;;;11.85;4.32;;;;;;;26.94;51.56;100074.84;9394822;26;39262;-75
2023/08/19 10:14:52;;;;;;;8.25;4.30;;;;;;;27.20;51.31;100078.00;9394751;26;40231;-77
2023/08/19 10:19:10;;;;;;;6.22;3.55;;;;;;;27.40;50.86;100078.72;9394744;26;38772;-76
2023/08/19 10:23:28;;;;;;;6.45;4.03;;;;;;;27.35;47.17;100072.28;9394231;26;38050;-75
2023/08/19 10:27:44;;;;;;;8.52;4.50;;;;;;;27.40;49.02;100062.72;9394760;26;39375;-73
2023/08/19 10:32:28;;;;;;;8.35;5.47;;;;;;;26.96;50.74;100066.88;9394596;26;40705;-75
2023/08/19 10:37:03;;;;;;;6.25;3.70;;;;;;;27.46;52.76;100052.03;9394711;26;38866;-75
2023/08/19 10:41:40;;;;;;;9.43;4.70;;;;;;;28.28;48.80;100043.72;9394758;26;36806;-81
2023/08/19 10:45:58;;;;;;;9.30;5.18;;;;;;;28.94;46.73;100040.25;9394946;26;38045;-79
2023/08/19 10:50:17;;;;;;;8.68;4.62;;;;;;;29.26;46.70;100045.31;9394288;26;40864;-78
2023/08/19 10:54:35;;;;;;;5.00;3.20;;;;;;;29.78;45.26;100038.31;9394815;26;38264;-78
2023/08/19 10:58:52;;;;;;;6.90;4.12;;;;;;;30.28;43.45;100037.59;9394631;26;37078;-76
2023/08/19 11:03:12;;;;;;;9.27;4.45;;;;;;;30.76;41.49;100027.19;9393382;26;40186;-81
2023/08/19 11:07:30;;;;;;;7.03;4.05;;;;;;;30.85;41.55;100030.37;9394651;26;40901;-81
2023/08/19 11:11:46;;;;;;;7.65;4.40;;;;;;;30.57;40.52;100012.31;9394703;26;38746;-81
2023/08/19 11:16:06;;;;;;;6.82;4.20;;;;;;;30.90;40.76;99996.19;9392836;26;37162;-81
2023/08/19 11:20:30;;;;;;;8.88;4.62;;;;;;;30.95;39.77;99990.19;9395064;26;40237;-81
2023/08/19 11:24:47;;;;;;;5.68;3.70;;;;;;;31.18;41.53;99989.69;9394969;26;39939;-82
2023/08/19 11:29:05;;;;;;;7.82;4.35;;;;;;;30.75;41.41;99986.97;9394839;26;38324;-81
2023/08/19 11:33:25;;;;;;;6.22;4.22;;;;;;;30.87;40.39;99995.00;9394854;26;38814;-81
2023/08/19 11:37:43;;;;;;;9.45;4.05;;;;;;;30.90;40.97;99988.53;9394710;26;39350;-82
2023/08/19 11:42:01;;;;;;;5.03;3.50;;;;;;;30.56;42.57;99991.03;9394608;26;40771;-83
2023/08/19 11:46:17;;;;;;;8.93;4.70;;;;;;;30.75;41.55;99994.63;9394553;26;38024;-82
2023/08/19 11:50:36;;;;;;;6.03;3.75;;;;;;;30.51;41.39;99994.25;9394708;26;37200;-83
2023/08/19 11:55:06;;;;;;;6.30;4.10;;;;;;;29.83;42.22;99997.78;9393390;26;39376;-83
2023/08/19 11:59:33;;;;;;;6.28;3.78;;;;;;;29.53;43.18;99998.09;9394244;26;39875;-82
2023/08/19 12:03:51;;;;;;;5.37;3.28;;;;;;;29.92;41.99;100003.03;9394372;26;39088;-83
2023/08/19 12:08:08;;;;;;;5.30;3.78;;;;;;;29.84;41.29;100001.41;9393662;26;36307;-80
2023/08/19 12:12:25;;;;;;;9.40;5.45;;;;;;;30.21;40.57;99997.44;9394298;26;39480;-81
2023/08/19 12:16:41;;;;;;;5.90;4.00;;;;;;;30.79;39.64;99984.97;9393767;26;39781;-81
2023/08/19 12:20:59;;;;;;;8.38;3.80;;;;;;;30.97;39.06;99982.12;9392946;26;38085;-80
2023/08/19 12:25:15;;;;;;;6.12;3.60;;;;;;;31.13;39.21;99983.69;9393821;26;37682;-82
2023/08/19 12:29:32;;;;;;;5.20;3.47;;;;;;;30.43;40.37;99987.03;9394064;26;40091;-83
2023/08/19 12:33:48;;;;;;;6.45;3.60;;;;;;;31.25;40.08;99975.63;9393967;26;40087;-85
2023/08/19 12:38:08;;;;;;;8.20;4.47;;;;;;;31.31;40.30;99967.53;9394021;26;38051;-81
2023/08/19 12:42:24;;;;;;;4.65;3.65;;;;;;;32.12;37.71;99975.94;9394043;26;37899;-82
2023/08/19 12:47:01;;;;;;;5.10;3.22;;;;;;;31.45;39.04;99961.81;9394262;26;39698;-82
2023/08/19 12:51:21;;;;;;;5.62;3.15;;;;;;;32.21;36.93;99954.94;9394375;26;40735;-82
2023/08/19 12:55:38;;;;;;;4.93;3.30;;;;;;;32.09;36.60;99959.84;9394343;26;37999;-84
2023/08/19 12:59:55;;;;;;;5.82;3.80;;;;;;;32.09;36.99;99971.13;9394147;26;37077;-81
2023/08/19 13:04:11;;;;;;;4.90;2.92;;;;;;;32.77;34.97;99964.06;9394271;26;39399;-83
2023/08/19 13:08:27;;;;;;;3.87;2.70;;;;;;;33.46;32.62;99958.41;9394186;26;39763;-83
2023/08/19 13:12:46;;;;;;;8.82;3.35;;;;;;;33.33;31.95;99963.06;9393530;26;37664;-83
2023/08/19 13:17:03;;;;;;;5.47;3.62;;;;;;;33.31;32.53;99955.81;9387776;26;197065;-82
2023/08/19 13:21:19;;;;;;;5.95;3.35;;;;;;;33.66;33.73;99945.22;9394043;26;40204;-83
2023/08/19 13:25:36;;;;;;;7.90;4.50;;;;;;;33.81;31.89;99945.84;9393181;26;40559;-82
2023/08/19 13:29:52;;;;;;;6.15;3.75;;;;;;;34.41;30.23;99943.25;9393551;26;37946;-82
2023/08/19 13:34:09;;;;;;;4.78;3.15;;;;;;;34.88;30.50;99938.78;9393806;26;37234;-82
2023/08/19 13:38:26;;;;;;;5.87;3.45;;;;;;;34.92;29.49;99943.09;9393902;26;39411;-82
2023/08/19 13:42:42;;;;;;;4.65;3.50;;;;;;;35.20;29.23;99934.44;9393741;26;40910;-82
2023/08/19 13:46:58;;;;;;;4.18;3.05;;;;;;;35.28;28.06;99928.22;9393802;26;38761;-82
2023/08/19 13:51:18;;;;;;;7.62;3.30;;;;;;;36.01;28.98;99933.03;9393792;26;37810;-82
2023/08/19 13:55:34;;;;;;;5.97;3.22;;;;;;;36.33;26.45;99935.09;9393554;26;39348;-81
2023/08/19 13:59:50;;;;;;;5.87;3.05;;;;;;;35.61;27.17;99936.00;9393604;26;39825;-82
2023/08/19 14:04:07;;;;;;;4.00;3.03;;;;;;;34.85;28.99;99937.59;9393465;26;37902;-82
2023/08/19 14:08:23;;;;;;;6.22;3.00;;;;;;;34.28;29.52;99938.66;9393462;26;37192;-82
2023/08/19 14:12:43;;;;;;;6.25;3.12;;;;;;;34.36;28.68;99928.81;9393435;26;39446;-82
2023/08/19 14:16:59;;;;;;;5.75;3.08;;;;;;;33.82;30.85;99936.12;9393064;26;40855;-82
2023/08/19 14:21:15;;;;;;;6.87;3.28;;;;;;;34.19;30.21;99927.84;9392932;26;38854;-81
2023/08/19 14:25:31;;;;;;;7.00;3.20;;;;;;;34.52;32.08;99922.44;9392123;26;37633;-81
2023/08/19 14:29:47;;;;;;;5.18;3.08;;;;;;;35.01;29.94;99919.88;9392187;26;39103;-81
2023/08/19 14:34:04;;;;;;;4.90;3.17;;;;;;;35.22;31.77;99915.00;9394002;26;40044;-81
2023/08/19 14:38:20;;;;;;;5.28;2.97;;;;;;;35.60;30.06;99911.72;9394178;26;39246;-81
2023/08/19 14:42:36;;;;;;;6.05;2.85;;;;;;;35.56;29.91;99911.00;9394392;26;37812;-82
2023/08/19 14:46:54;;;;;;;6.45;3.05;;;;;;;35.19;30.10;99930.84;9394581;26;39425;-81
2023/08/19 14:51:10;;;;;;;8.40;2.90;;;;;;;34.92;31.07;99919.66;9393636;26;39877;-81
2023/08/19 14:55:26;;;;;;;4.87;3.30;;;;;;;35.35;31.30;99918.78;9394256;26;37879;-81
2023/08/19 14:59:42;;;;;;;6.78;2.83;;;;;;;35.44;29.37;99907.63;9393937;26;37895;-81
2023/08/19 15:03:59;;;;;;;5.47;3.28;;;;;;;35.48;29.93;99916.03;9394320;26;39634;-81
2023/08/19 15:08:15;;;;;;;8.82;3.30;;;;;;;35.52;29.65;99917.56;9393659;26;41330;-82
2023/08/19 15:12:32;;;;;;;5.87;3.22;;;;;;;35.88;29.78;99916.72;9394307;26;37901;-82
2023/08/19 15:16:48;;;;;;;6.12;3.25;;;;;;;35.75;29.07;99915.06;9393921;26;37201;-82
2023/08/19 15:21:06;;;;;;;5.55;3.08;;;;;;;35.43;29.87;99908.87;9392331;26;39322;-82
2023/08/19 15:25:23;;;;;;;13.38;3.58;;;;;;;35.51;30.02;99907.47;9392772;26;40042;-82
2023/08/19 15:29:41;;;;;;;4.37;3.15;;;;;;;34.93;29.98;99913.56;9392550;26;37921;-83
2023/08/19 15:34:04;;;;;;;4.68;3.00;;;;;;;34.89;31.30;99909.19;9392519;26;37057;-82
2023/08/19 15:38:22;;;;;;;4.37;3.05;;;;;;;34.86;32.07;99915.72;9394526;26;39352;-82
2023/08/19 15:42:39;;;;;;;6.20;3.22;;;;;;;35.02;30.45;99912.19;9393534;26;40814;-83
2023/08/19 15:46:56;;;;;;;5.30;3.45;;;;;;;35.35;29.63;99913.09;9394248;26;38761;-83
2023/08/19 15:51:14;;;;;;;6.30;3.17;;;;;;;35.34;30.46;99915.16;9393702;26;36778;-82
2023/08/19 15:55:31;;;;;;;5.00;3.05;;;;;;;34.87;31.02;99912.47;9392648;26;38936;-82
2023/08/19 15:59:48;;;;;;;8.25;3.67;;;;;;;34.50;31.43;99922.09;9393843;26;39654;-83
2023/08/19 16:04:06;;;;;;;4.28;2.97;;;;;;;34.19;32.23;99908.87;9393717;26;37685;-82
2023/08/19 16:08:29;;;;;;;5.35;3.70;;;;;;;34.47;31.59;99905.97;9394303;26;37104;-82
2023/08/19 16:12:46;;;;;;;6.03;3.58;;;;;;;34.27;32.03;99906.72;9392030;26;40110;-82
2023/08/19 16:17:02;;;;;;;4.70;3.15;;;;;;;34.32;32.49;99916.75;9393037;26;40908;-82
2023/08/19 16:21:19;;;;;;;4.78;3.47;;;;;;;33.94;32.74;99920.56;9393605;26;37914;-83
2023/08/19 16:25:38;;;;;;;7.25;3.90;;;;;;;34.08;32.45;99913.09;9393941;26;37605;-82
2023/08/19 16:29:57;;;;;;;6.78;3.87;;;;;;;33.96;33.31;99917.31;9393657;26;39029;-82
2023/08/19 16:34:15;;;;;;;6.12;3.60;;;;;;;34.13;32.91;99921.09;9392998;26;40032;-83
2023/08/19 16:38:31;;;;;;;7.97;4.00;;;;;;;33.91;33.28;99917.81;9393771;26;37572;-83
2023/08/19 16:42:48;;;;;;;5.37;3.67;;;;;;;33.75;33.66;99915.66;9392777;26;37207;-83
2023/08/19 16:47:05;;;;;;;5.78;3.75;;;;;;;33.83;33.21;99919.97;9393132;26;40206;-82
2023/08/19 16:51:21;;;;;;;8.07;4.50;;;;;;;33.62;34.03;99913.38;9393569;26;40028;-84
2023/08/19 16:55:37;;;;;;;7.15;4.20;;;;;;;33.59;34.86;99907.78;9393500;26;38677;-83
2023/08/19 16:59:54;;;;;;;5.35;4.15;;;;;;;33.42;35.57;99912.47;9393695;26;37804;-82
2023/08/19 17:04:11;;;;;;;8.93;3.90;;;;;;;33.60;36.07;99924.31;9392820;26;39492;-84
2023/08/19 17:08:28;;;;;;;6.55;4.37;;;;;;;33.82;35.56;99924.84;9393568;26;39998;-84
2023/08/19 17:12:45;;;;;;;10.00;4.43;;;;;;;34.40;35.16;99929.53;9393044;26;38497;-84
2023/08/19 17:17:03;;;;;;;8.30;3.72;;;;;;;34.84;34.63;99935.19;9393170;26;37212;-84
2023/08/19 17:21:19;;;;;;;11.65;6.20;;;;;;;34.76;34.71;99929.69;9391884;26;39565;-83
2023/08/19 17:25:36;;;;;;;12.37;8.05;;;;;;;34.01;35.68;99937.44;9392834;26;39666;-84
2023/08/19 17:29:52;;;;;;;20.45;12.10;;;;;;;33.16;37.82;99945.13;9393372;26;38778;-83
2023/08/19 17:34:08;;;;;;;16.85;8.30;;;;;;;33.06;38.43;99950.44;9392680;26;38022;-83
2023/08/19 17:38:25;;;;;;;10.32;5.68;;;;;;;32.46;39.89;99944.22;9393073;26;39432;-83
2023/08/19 17:42:41;;;;;;;9.80;6.00;;;;;;;32.02;41.40;99951.41;9393262;26;41007;-84
2023/08/19 17:46:57;;;;;;;12.57;5.40;;;;;;;31.63;42.29;99949.66;9392249;26;38573;-83
2023/08/19 17:51:14;;;;;;;9.05;5.15;;;;;;;31.13;43.37;99955.53;9393433;26;37479;-83
2023/08/19 17:55:30;;;;;;;9.98;5.53;;;;;;;30.84;44.04;99966.88;9392526;26;39736;-84
2023/08/19 17:59:46;;;;;;;9.05;5.45;;;;;;;30.12;46.15;99970.53;9394222;26;39946;-83
2023/08/19 18:04:04;;;;;;;7.87;5.40;;;;;;;29.83;46.84;99977.31;9394289;26;37716;-83
2023/08/19 18:08:20;;;;;;;7.18;5.00;;;;;;;29.73;46.33;99979.66;9394440;26;37107;-83
2023/08/19 18:12:38;;;;;;;8.68;4.65;;;;;;;29.44;47.20;99978.00;9393304;26;39168;-82
2023/08/19 18:16:55;;;;;;;7.50;4.75;;;;;;;29.37;47.07;99990.00;9393814;26;40587;-83
2023/08/19 18:21:12;;;;;;;10.02;4.97;;;;;;;29.14;47.62;100004.31;9394772;26;37912;-83
2023/08/19 18:25:29;;;;;;;8.73;5.35;;;;;;;28.98;47.83;100010.25;9393790;26;36805;-83
2023/08/19 18:29:46;;;;;;;9.50;4.70;;;;;;;28.88;47.99;100025.00;9394313;26;39570;-82
2023/08/19 18:34:05;;;;;;;16.90;11.18;;;;;;;28.69;48.64;100024.06;9394398;26;40669;-82
2023/08/19 18:38:23;;;;;;;12.40;7.62;;;;;;;28.48;49.31;100033.91;9393859;26;38135;-81
2023/08/19 18:42:42;;;;;;;8.93;5.72;;;;;;;28.29;49.83;100036.94;9394772;26;37155;-82
2023/08/19 18:47:00;;;;;;;8.40;5.10;;;;;;;28.21;49.92;100043.66;9393842;26;38378;-82
2023/08/19 18:51:17;;;;;;;8.05;5.00;;;;;;;27.93;50.75;100039.38;9394565;26;40880;-83
2023/08/19 18:55:37;;;;;;;7.18;4.50;;;;;;;28.01;50.53;100032.69;9392367;26;38155;-82
2023/08/19 18:59:54;;;;;;;7.95;4.80;;;;;;;27.80;51.10;100038.00;9393998;26;37890;-82
2023/08/19 19:04:11;;;;;;;9.68;5.28;;;;;;;27.57;52.00;100038.94;9394561;26;40077;-83
2023/08/19 19:08:28;;;;;;;7.78;4.80;;;;;;;27.45;52.36;100036.41;9393268;26;40886;-83
2023/08/19 19:12:50;;;;;;;9.88;5.22;;;;;;;27.32;52.65;100039.44;9392946;26;38095;-83
2023/08/19 19:17:10;;;;;;;12.32;5.68;;;;;;;27.22;52.78;100028.88;9393616;26;36748;-83
2023/08/19 19:21:30;;;;;;;10.77;6.28;;;;;;;27.10;53.31;100043.13;9394293;26;39440;-82
2023/08/19 19:25:48;;;;;;;11.00;6.35;;;;;;;27.07;53.34;100052.25;9394045;26;39706;-82
2023/08/19 19:30:07;;;;;;;11.10;5.97;;;;;;;26.91;53.34;100053.22;9393664;26;38362;-82
2023/08/19 19:34:26;;;;;;;12.20;5.78;;;;;;;26.95;53.36;100064.47;9394762;26;37698;-83
2023/08/19 19:38:43;;;;;;;11.48;6.35;;;;;;;26.91;53.31;100058.81;9393701;26;40618;-82
2023/08/19 19:43:00;;;;;;;10.75;6.07;;;;;;;26.72;53.78;100067.31;9394324;26;38864;-83
2023/08/19 19:47:17;;;;;;;11.23;6.40;;;;;;;26.60;54.32;100069.09;9393174;26;38056;-84
2023/08/19 19:51:37;;;;;;;8.15;5.60;;;;;;;26.35;55.27;100068.66;9393776;26;37563;-83
2023/08/19 19:55:57;;;;;;;8.27;5.43;;;;;;;26.27;55.35;100066.09;9394564;26;39991;-83
2023/08/19 20:00:15;;;;;;;10.93;5.37;;;;;;;26.34;54.80;100064.25;9393554;26;39869;-83
2023/08/19 20:04:32;;;;;;;8.85;5.15;;;;;;;26.03;55.33;100071.66;9394298;26;38749;-83